Terminal Aerodrome Forecast
Issued by NWS

Home | Current Version | Previous Version | Text Only | Print | Product List | Glossary On
Versions: 1 2 3 4 5 6 7 8 9 10 11 12 13 14 15 16 17 18 19 20 21 22 23 24 25 26 27 28 29 30 31 32 33 34 35 36
000
FTPA31 PHFO 201100
TAFOGG
TAF
PHOG 201120Z 2012/2112 06015KT P6SM SCT025 SCT045
     FM201400 06010KT P6SM SCT025 SCT045
     FM202000 05015G25KT P6SM SCT025 BKN045
     FM210600 05011KT P6SM SCT025 SCT045
      AMD LTD TO WX VIS AND WIND TIL 201600=

USA.gov is the U.S. government's official web portal to all federal, state and local government web resources and services.